Flight Track Log - Related Links

Times and Time Zones

All times are in EDT time to prevent confusion due to time zone crossing. See the N544PS flight status page for this flight to view local times or setup timezone preferences in your user account.

Time Position Orientation Groundspeed Altitude Reporting Facility
EDT Latitude Longitude Course Direction KTS MPH feet Rate Location/Type
Tue 04:31:30 PM 44.0000 -103.1656 291° West 228 262 11,000  Level Denver Center
Tue 04:32:32 PM 44.0122 -103.2469 282° West 225 259 14,300 3,317 Climbing Denver Center
Tue 04:33:33 PM 44.0308 -103.3556 283° West 243 280 17,800 3,171 Climbing Denver Center
Tue 04:34:35 PM 44.0467 -103.4431 284° West 246 283 20,800 2,371 Climbing Denver Center
Tue 04:35:37 PM 44.0636 -103.5514 282° West 252 290 22,700 1,887 Climbing Denver Center
Tue 04:36:39 PM 44.0828 -103.6669 283° West 296 341 24,700 2,000 Climbing Denver Center
Tue 04:37:40 PM 44.1011 -103.7769 283° West 304 350 26,800 2,195 Climbing Denver Center
Tue 04:38:42 PM 44.1208 -103.9064 282° West 308 354 29,200 1,984 Climbing Denver Center
Tue 04:39:44 PM 44.1378 -104.0142 282° West 300 345 30,900 1,694 Climbing Denver Center
Tue 04:40:46 PM 44.1583 -104.1428 283° West 304 350 32,700 1,512 Climbing Denver Center
Tue 04:41:47 PM 44.1750 -104.2511 282° West 301 346 34,000 1,317 Climbing Denver Center
Tue 04:42:49 PM 44.1942 -104.3747 282° West 295 339 35,400 1,210 Climbing Denver Center
Tue 04:43:51 PM 44.2100 -104.4783 282° West 288 331 36,500 844 Climbing Denver Center
Tue 04:45:04 PM 44.2267 -104.5814 283° West 286 329 37,300 485 Climbing Denver Center
Tue 04:46:07 PM 44.2486 -104.7231 282° West 293 337 37,600 309 Climbing Denver Center
Tue 04:47:20 PM 44.2694 -104.8569 282° West 312 359 38,000 489 Climbing Denver Center
Tue 04:48:22 PM 44.2881 -104.9906 281° West 314 361 38,700 677 Climbing Denver Center
Tue 04:49:24 PM 44.3081 -105.1192 282° West 307 353 39,400 581 Climbing Denver Center
Tue 04:50:26 PM 44.3244 -105.2289 282° West 303 349 39,900 290 Climbing Denver Center
Tue 04:51:28 PM 44.3428 -105.3581 281° West 304 350 40,000 44 Climbing Denver Center
Tue 04:52:41 PM 44.3594 -105.4742 281° West 314 361 40,000  Level Denver Center
Tue 04:53:43 PM 44.3817 -105.6319 281° West 324 373 40,000  Level Denver Center
Tue 04:54:57 PM 44.4003 -105.7522 282° West 329 379 40,000  Level Denver Center
Tue 04:55:59 PM 44.4225 -105.9133 281° West 331 381 40,000  Level Denver Center
Tue 04:57:01 PM 44.4414 -106.0525 281° West 328 377 40,000  Level Denver Center
Tue 04:58:11 PM 44.4625 -106.1939 282° West 320 368 40,000  Level Salt Lake Center
Tue 04:59:13 PM 44.4786 -106.3114 281° West 320 368 40,000  Level Salt Lake Center
Tue 05:00:15 PM 44.4939 -106.4275 280° West 318 366 40,000  Level Salt Lake Center
Tue 05:01:17 PM 44.5122 -106.5642 281° West 320 368 40,000  Level Salt Lake Center
Tue 05:02:18 PM 44.5286 -106.6811 281° West 319 367 40,000  Level Salt Lake Center
Tue 05:03:20 PM 44.5458 -106.8183 280° West 321 369 40,000  Level Salt Lake Center
Tue 05:04:21 PM 44.5608 -106.9353 280° West 319 367 40,000  Level Salt Lake Center
Tue 05:05:23 PM 44.5758 -107.0517 280° West 319 367 40,000  Level Salt Lake Center
Tue 05:06:25 PM 44.5936 -107.1875 280° West 317 365 40,000  Level Salt Lake Center
Tue 05:07:26 PM 44.6075 -107.3053 279° West 318 366 40,000  Level Salt Lake Center
Tue 05:08:28 PM 44.6258 -107.4431 281° West 320 368 40,000  Level Salt Lake Center
Tue 05:09:30 PM 44.6411 -107.5611 280° West 322 371 40,000  Level Salt Lake Center
Tue 05:10:31 PM 44.6581 -107.6992 280° West 320 368 40,000  Level Salt Lake Center
Tue 05:11:33 PM 44.6731 -107.8194 280° West 323 372 40,000  Level Salt Lake Center
Tue 05:12:35 PM 44.6875 -107.9392 280° West 321 369 40,000  Level Salt Lake Center
Tue 05:13:36 PM 44.7039 -108.0814 279° West 325 374 40,000  Level Salt Lake Center
Tue 05:14:38 PM 44.7192 -108.2022 280° West 325 374 40,000  Level Salt Lake Center
Tue 05:15:40 PM 44.7333 -108.3239 279° West 328 377 40,000  Level Salt Lake Center
Tue 05:16:41 PM 44.7503 -108.4653 280° West 328 377 40,000  Level Salt Lake Center
Tue 05:17:43 PM 44.7650 -108.5867 280° West 328 377 40,000  Level Salt Lake Center
Tue 05:18:45 PM 44.7808 -108.7278 279° West 327 376 40,000  Level Salt Lake Center
Tue 05:19:47 PM 44.7942 -108.8478 279° West 325 374 40,000  Level Salt Lake Center
Tue 05:20:48 PM 44.8083 -108.9681 279° West 325 374 40,000  Level Salt Lake Center
Tue 05:21:50 PM 44.8244 -109.1108 279° West 330 380 40,000  Level Salt Lake Center
Tue 05:22:52 PM 44.8367 -109.2317 278° West 327 376 40,000  Level Salt Lake Center
Tue 05:23:54 PM 44.8522 -109.3722 279° West 326 375 40,000  Level Salt Lake Center
Tue 05:24:55 PM 44.8650 -109.4919 279° West 323 372 40,000  Level Salt Lake Center
Tue 05:25:57 PM 44.8797 -109.6331 278° West 326 375 40,000  Level Salt Lake Center
Tue 05:26:59 PM 44.8933 -109.7550 279° West 328 377 40,000  Level Salt Lake Center
Tue 05:28:01 PM 44.9056 -109.8767 278° West 323 372 40,000  Level Salt Lake Center
Tue 05:29:03 PM 44.9211 -110.0175 279° West 326 375 40,000  Level Salt Lake Center
Tue 05:30:04 PM 44.9325 -110.1361 278° West 322 371 40,000  Level Salt Lake Center
Tue 05:31:06 PM 44.9458 -110.2750 278° West 320 368 40,000  Level Salt Lake Center
Tue 05:32:08 PM 44.9583 -110.3936 279° West 320 368 40,000  Level Salt Lake Center
Tue 05:33:10 PM 44.9728 -110.5344 278° West 324 373 40,000  Level Salt Lake Center
Tue 05:34:12 PM 44.9836 -110.6536 277° West 322 371 40,000  Level Salt Lake Center
Tue 05:35:14 PM 44.9981 -110.7925 278° West 321 369 40,000  Level Salt Lake Center
Tue 05:36:15 PM 45.0092 -110.9117 278° West 321 369 40,000  Level Salt Lake Center
Tue 05:37:17 PM 45.0217 -111.0500 277° West 320 368 40,000  Level Salt Lake Center
Tue 05:38:19 PM 45.0333 -111.1683 278° West 319 367 40,000  Level Salt Lake Center
Tue 05:39:21 PM 45.0461 -111.3061 278° West 319 367 40,000  Level Salt Lake Center
Tue 05:40:23 PM 45.0558 -111.4261 277° West 321 369 40,000  Level Salt Lake Center
Tue 05:41:25 PM 45.0669 -111.5447 278° West 320 368 40,000  Level Salt Lake Center
Tue 05:42:26 PM 45.0786 -111.6828 277° West 319 367 40,000  Level Salt Lake Center
Tue 05:43:28 PM 45.0894 -111.8028 277° West 322 371 40,000  Level Salt Lake Center
Tue 05:44:30 PM 45.1019 -111.9408 277° West 318 366 40,000  Level Salt Lake Center
Tue 05:45:32 PM 45.1114 -112.0514 277° West 316 364 40,000  Level Salt Lake Center
Tue 05:46:33 PM 45.1236 -112.1989 277° West 321 369 40,000  Level Salt Lake Center
Tue 05:47:35 PM 45.1328 -112.3186 276° West 321 369 40,000  Level Salt Lake Center
Tue 05:48:37 PM 45.1442 -112.4581 277° West 320 368 40,000  Level Salt Lake Center
Tue 05:49:39 PM 45.1536 -112.5781 276° West 321 369 40,000  Level Salt Lake Center
Tue 05:50:40 PM 45.1658 -112.7169 277° West 319 367 40,000  Level Salt Lake Center
Tue 05:51:42 PM 45.1742 -112.8369 276° West 319 367 40,000  Level Salt Lake Center
Tue 05:52:44 PM 45.1836 -112.9567 276° West 320 368 40,000  Level Salt Lake Center
Tue 05:53:45 PM 45.1944 -113.0967 276° West 321 369 40,000  Level Salt Lake Center
Tue 05:54:47 PM 45.2025 -113.2172 275° West 322 371 40,000  Level Salt Lake Center
Tue 05:55:49 PM 45.2136 -113.3589 276° West 323 372 40,000  Level Salt Lake Center
Tue 05:56:50 PM 45.2222 -113.4794 276° West 322 371 40,000  Level Salt Lake Center
Tue 05:57:52 PM 45.2317 -113.6214 275° West 323 372 40,000  Level Salt Lake Center
Tue 05:58:54 PM 45.2414 -113.7428 277° West 324 373 40,000  Level Salt Lake Center
Tue 05:59:55 PM 45.2500 -113.8642 276° West 322 371 40,000  Level Salt Lake Center
Tue 06:00:57 PM 45.2600 -114.0094 276° West 329 379 40,000  Level Salt Lake Center
Tue 06:01:59 PM 45.2678 -114.1314 275° West 326 375 40,000  Level Salt Lake Center
Tue 06:03:00 PM 45.2769 -114.2733 275° West 324 373 40,000  Level Salt Lake Center
Tue 06:04:02 PM 45.2847 -114.3961 275° West 325 374 40,000  Level Salt Lake Center
Tue 06:05:04 PM 45.2939 -114.5397 275° West 327 376 40,000  Level Salt Lake Center
Tue 06:06:05 PM 45.3017 -114.6614 275° West 324 373 40,000  Level Salt Lake Center
Tue 06:07:07 PM 45.3083 -114.7853 274° West 327 376 40,000  Level Salt Lake Center
Tue 06:08:09 PM 45.3181 -114.9289 276° West 329 379 40,000  Level Salt Lake Center
Tue 06:09:10 PM 45.3247 -115.0503 275° West 325 374 40,000  Level Salt Lake Center
Tue 06:10:12 PM 45.3331 -115.1928 275° West 326 375 40,000  Level Salt Lake Center
Tue 06:11:14 PM 45.3394 -115.3150 274° West 324 373 40,000  Level Salt Lake Center
Tue 06:12:15 PM 45.3472 -115.4564 275° West 324 373 40,000  Level Salt Lake Center
Tue 06:13:17 PM 45.3542 -115.5792 275° West 326 375 40,000  Level Salt Lake Center
Tue 06:14:18 PM 45.3600 -115.6997 274° West 322 371 40,000  Level Salt Lake Center
Tue 06:14:37 PM 45.3622 -115.7406 274° West 321 369 40,000  Level Seattle Center
Tue 06:15:38 PM 45.3697 -115.8844 274° West 326 375 40,000  Level Seattle Center
Tue 06:16:39 PM 45.3758 -116.0061 274° West 324 373 40,000  Level Seattle Center
Tue 06:17:23 PM 45.3806 -116.1086 274° West 326 375 40,000  Level Salt Lake Center
Tue 06:17:40 PM 45.3811 -116.1300 272° West 328 377 40,000  Level Seattle Center
Tue 06:18:41 PM 45.3886 -116.2719 274° West 325 374 40,000  Level Seattle Center
Tue 06:19:42 PM 45.3939 -116.3944 274° West 324 373 40,000  Level Seattle Center
Tue 06:20:43 PM 45.4006 -116.5386 274° West 328 377 40,000  Level Seattle Center
Tue 06:21:44 PM 45.4053 -116.6625 273° West 329 379 40,000  Level Seattle Center
Tue 06:22:45 PM 45.4111 -116.7861 274° West 328 377 40,000  Level Seattle Center
Tue 06:23:46 PM 45.4167 -116.9286 273° West 326 375 40,000  Level Seattle Center
Tue 06:24:47 PM 45.4217 -117.0517 273° West 326 375 40,000  Level Seattle Center
Tue 06:25:48 PM 45.4261 -117.1758 273° West 328 377 40,000  Level Seattle Center
Tue 06:26:49 PM 45.4328 -117.3183 274° West 324 373 40,000  Level Seattle Center
Tue 06:27:50 PM 45.4361 -117.4419 272° West 326 375 40,000  Level Seattle Center
Tue 06:28:51 PM 45.4417 -117.5867 273° West 327 376 40,000  Level Seattle Center
Tue 06:29:52 PM 45.4464 -117.7100 273° West 328 377 40,000  Level Seattle Center
Tue 06:30:53 PM 45.4497 -117.8292 272° West 327 376 40,000  Level Seattle Center
Tue 06:31:54 PM 45.4539 -117.9589 273° West 328 377 40,000  Level Seattle Center
Tue 06:32:55 PM 45.4586 -118.0894 273° West 329 379 40,000  Level Seattle Center
Tue 06:33:56 PM 45.4617 -118.2169 272° West 324 373 40,000  Level Seattle Center
Tue 06:34:57 PM 45.4656 -118.3447 273° West 324 373 40,000  Level Seattle Center
Tue 06:35:58 PM 45.4694 -118.4747 272° West 327 376 40,000  Level Seattle Center
Tue 06:36:59 PM 45.4733 -118.6253 272° West 319 367 40,000  Level Seattle Center
Tue 06:38:00 PM 45.4772 -118.7533 273° West 324 373 40,000 -246 Level Seattle Center
Tue 06:39:01 PM 45.4806 -118.8817 272° West 322 371 39,500 -744 Descending Seattle Center
Tue 06:40:01 PM 45.4828 -119.0147 271° West 333 383 38,500 -1,091 Descending Seattle Center
Tue 06:41:02 PM 45.4864 -119.1481 272° West 337 388 37,300 -738 Descending Seattle Center
Tue 06:42:03 PM 45.4886 -119.2831 271° West 340 391 37,000 -148 Descending Seattle Center
Tue 06:43:04 PM 45.4925 -119.4128 272° West 331 381 37,000  Level Seattle Center
Tue 06:44:05 PM 45.4942 -119.5394 271° West 323 372 37,000  Level Seattle Center
Tue 06:45:06 PM 45.4967 -119.6675 272° West 325 374 37,000  Level Seattle Center
Tue 06:46:07 PM 45.4983 -119.8019 271° West 336 387 37,000  Level Seattle Center
Tue 06:47:08 PM 45.5000 -119.9347 271° West 337 388 37,000  Level Seattle Center
Tue 06:48:09 PM 45.5036 -120.0700 272° West 341 392 37,000 -295 Level Seattle Center
Tue 06:49:10 PM 45.5050 -120.2056 271° West 342 394 36,400 -934 Descending Seattle Center
Tue 06:50:11 PM 45.5075 -120.3669 271° West 339 390 35,100 -1,525 Descending Seattle Center
Tue 06:51:12 PM 45.5083 -120.4833 271° West 338 389 33,300 -1,869 Descending Seattle Center
Tue 06:52:13 PM 45.5094 -120.6131 271° West 332 382 31,300 -2,016 Descending Seattle Center
Tue 06:53:14 PM 45.5111 -120.7414 271° West 326 375 29,200 -2,066 Descending Seattle Center
Tue 06:54:15 PM 45.5122 -120.8678 271° West 322 371 27,100 -2,262 Descending Seattle Center
Tue 06:55:16 PM 45.5125 -121.0167 270° West 316 364 24,600 -2,213 Descending Seattle Center
Tue 06:56:17 PM 45.5122 -121.1450 270° West 322 371 22,600 -1,918 Descending Seattle Center
Tue 06:57:18 PM 45.5136 -121.2708 271° West 321 369 20,700 -1,979 Descending Seattle Center
Tue 06:57:51 PM 45.5122 -121.3461 269° West 320 368 19,500 -1,967 Descending Seattle Center
Tue 06:58:19 PM 45.5131 -121.3992 271° West 323 372 18,700 -1,750 Descending Seattle Center
Tue 06:59:03 PM 45.5125 -121.5008 270° West 320 368 17,400 -1,770 Descending Seattle Center
Tue 06:59:20 PM 45.5133 -121.5231 273° West 318 366 16,900 -1,964 Descending Seattle Center
Tue 06:59:58 PM 45.5133 -121.6181 270° West 319 367 15,600 -1,869 Descending Seattle Center
Tue 07:00:21 PM 45.5136 -121.6494 271° West 318 366 15,000 -2,066 Descending Seattle Center
Tue 07:00:59 PM 45.5142 -121.7353 271° West 297 342 13,500 -1,967 Descending Seattle Center
Tue 07:01:22 PM 45.5133 -121.7636 268° West 300 345 13,000 -2,182 Descending Seattle Center
Tue 07:01:54 PM 45.5125 -121.8411 269° West 286 329 11,500 -2,262 Descending Seattle Center
Tue 07:02:23 PM 45.5131 -121.8781 271° West 289 333 10,700 -2,100 Descending Seattle Center
Tue 07:02:54 PM 45.5125 -121.9553 269° West 290 334 9,400 -2,066 Descending Seattle Center
Tue 07:03:24 PM 45.5128 -121.9917 271° West 290 334 8,600 -2,066 Descending Seattle Center
Tue 07:03:55 PM 45.5033 -122.0581 259° West 259 298 7,300 -1,672 Descending Seattle Center
Tue 07:04:25 PM 45.5050 -122.0953 274° West 280 322 6,900 -1,279 Descending Seattle Center
Tue 07:04:56 PM 45.4958 -122.1478 256° West 215 247 6,000 -1,377 Descending Seattle Center
Tue 07:05:26 PM 45.4958 -122.1742 270° West 233 268 5,500 -1,151 Descending Seattle Center
Tue 07:06:09 PM 45.5044 -122.2428 280° West 192 221 4,600 -1,279 Descending Seattle Center
Tue 07:06:27 PM 45.5078 -122.2625 284° West 203 234 4,200 -1,000 Descending Seattle Center
Tue 07:07:09 PM 45.5169 -122.3242 282° West 223 257 3,600 -984 Descending Seattle Center
Tue 07:07:28 PM 45.5211 -122.3489 284° West 209 241 3,200 -982 Descending Seattle Center
Tue 07:08:04 PM 45.5272 -122.3969 280° West 191 220 2,700 -984 Descending Seattle Center
Tue 07:08:29 PM 45.5339 -122.4225 290° West 206 237 2,200 -689 Descending Seattle Center
Tue 07:09:05 PM 45.5389 -122.4539 283° West 135 155 2,000 -590 Descending Seattle Center
Tue 07:09:30 PM 45.5464 -122.4728 300° West 170 196 1,600 -822 Descending Seattle Center
Tue 07:10:18 PM 45.5628 -122.5181 297° West 150 173 1,000 -750 Descending Seattle Center
Tue 07:11:06 PM 45.5758 -122.5497 301° West 121 139 400 -486 Descending Seattle Center
Tue 07:11:32 PM 45.5836 -122.5669 303° West 148 170 400  Level Seattle Center

Login

Don't have an account? Register now (free) for customized features, flight alerts, and more!